HQZ weather

Mesquite Metro Airport
Mesquite, Texas, United States

Public forecast

Using degrees Fahrenheit for public forecast. Weather courtesy of forecast.io.

Current aviation weather report (METAR) for Mesquite Metro Airport

Retrieved 2019/10/21 06:35 UTC (0 seconds ago):

KHQZ 210635Z AUTO 27023G31KT 4SM SCT008 SCT015 OVC022 20/17 A2967 RMK AO1 P0003 T02020174

Closest aviation forecast (TAF) to Mesquite Metro Airport

Closest forecast is Dallas Love Field, 17.3 nm (32.0 km) WNW. Retrieved 2019/10/21 06:22 UTC (0 seconds ago):

TAF KDAL 210520Z 2106/2206 24012KT P6SM VCTS OVC050CB FM210700 26015G25KT 4SM TSRA OVC035CB TEMPO 2107/2108 30025G35KT 2SM +TSRA OVC025CB FM210900 33013KT P6SM VCSH SCT090 BKN150 FM211000 35011KT P6SM FEW150 FM220300 VRB03KT P6SM SKC